createdAt,value
2023-05-10T00:12:01.545Z,13.48
2023-05-10T00:32:01.568Z,13.37
2023-05-10T00:52:01.473Z,13.37
2023-05-10T01:12:01.448Z,13.29
2023-05-10T01:32:01.462Z,13.25
2023-05-10T01:52:01.442Z,13.22
2023-05-10T02:12:01.439Z,13.16
2023-05-10T02:32:01.437Z,13.14
2023-05-10T02:52:01.337Z,13.16
2023-05-10T03:12:01.331Z,13.18
2023-05-10T03:32:01.331Z,13.19
2023-05-10T03:52:01.329Z,13.25
2023-05-10T04:12:01.329Z,13.23
2023-05-10T04:32:01.319Z,13.31
2023-05-10T04:52:01.220Z,13.32
2023-05-10T05:12:01.226Z,13.10
2023-05-10T05:32:01.216Z,12.94
2023-05-10T05:52:01.230Z,12.74
2023-05-10T06:12:01.311Z,12.86
2023-05-10T06:32:01.238Z,12.97
2023-05-10T06:52:01.200Z,13.27
2023-05-10T07:12:01.243Z,13.53
2023-05-10T07:32:01.109Z,13.95
2023-05-10T07:52:01.079Z,14.92
2023-05-10T08:12:01.073Z,14.74
2023-05-10T08:32:01.262Z,14.87
2023-05-10T08:52:00.990Z,15.20
2023-05-10T09:12:01.103Z,16.82
2023-05-10T09:32:00.982Z,16.95
2023-05-10T09:52:00.982Z,16.82
2023-05-10T10:12:00.977Z,15.30
2023-05-10T10:32:00.885Z,14.07
2023-05-10T10:52:00.885Z,14.16
2023-05-10T11:12:00.902Z,14.84
2023-05-10T11:32:00.987Z,15.25
2023-05-10T11:52:00.791Z,15.88
2023-05-10T12:12:00.777Z,16.17
2023-05-10T12:32:00.783Z,15.33
2023-05-10T12:52:00.901Z,14.04
2023-05-10T13:12:00.768Z,13.69
2023-05-10T13:32:00.771Z,13.33
2023-05-10T13:52:00.705Z,12.98
2023-05-10T14:12:00.724Z,13.16
2023-05-10T14:32:00.697Z,13.36
2023-05-10T14:52:00.704Z,13.29
2023-05-10T15:12:00.590Z,13.15
2023-05-10T15:32:00.597Z,13.17
2023-05-10T15:52:00.582Z,13.09
2023-05-10T16:12:00.632Z,12.92
2023-05-10T16:32:00.583Z,12.45
2023-05-10T16:52:00.499Z,12.12
2023-05-10T17:12:00.490Z,11.83
2023-05-10T17:32:00.506Z,11.71
2023-05-10T17:52:00.479Z,11.64
2023-05-10T18:12:00.496Z,11.66
2023-05-10T18:32:00.474Z,11.51
2023-05-10T18:52:00.513Z,11.48
2023-05-10T19:12:00.514Z,11.38
2023-05-10T19:32:00.523Z,11.30
2023-05-10T19:52:00.357Z,11.21
2023-05-10T20:12:00.377Z,11.09
2023-05-10T20:32:00.353Z,11.00
2023-05-10T20:52:00.351Z,10.85
2023-05-10T21:12:00.427Z,10.89
2023-05-10T21:32:00.378Z,10.89
2023-05-10T21:52:00.389Z,10.87
2023-05-10T22:12:00.266Z,10.81
2023-05-10T22:32:00.227Z,10.79
2023-05-10T22:52:00.249Z,10.70
2023-05-10T23:12:00.221Z,10.62
2023-05-10T23:32:00.277Z,10.55
2023-05-10T23:53:48.499Z,10.61
